createdAt,value
2018-10-11T00:02:01.585Z,31.50
2018-10-11T00:04:29.609Z,31.57
2018-10-11T00:06:57.582Z,31.00
2018-10-11T00:09:25.569Z,32.07
2018-10-11T00:11:53.736Z,32.63
2018-10-11T00:14:21.877Z,31.73
2018-10-11T00:16:50.025Z,32.83
2018-10-11T00:19:18.005Z,32.10
2018-10-11T00:21:45.988Z,32.57
2018-10-11T00:24:14.006Z,32.90
2018-10-11T00:26:41.999Z,34.37
2018-10-11T00:29:09.979Z,32.20
2018-10-11T00:31:37.971Z,31.80
2018-10-11T00:34:05.992Z,33.33
2018-10-11T00:36:33.965Z,33.47
2018-10-11T00:39:01.989Z,33.67
2018-10-11T00:41:30.346Z,33.80
2018-10-11T00:43:58.424Z,33.43
2018-10-11T00:46:26.400Z,33.00
2018-10-11T00:48:54.394Z,33.80
2018-10-11T00:51:22.379Z,35.17
2018-10-11T00:53:50.358Z,33.87
2018-10-11T00:56:18.357Z,33.47
2018-10-11T00:58:46.343Z,34.80
2018-10-11T01:01:14.327Z,33.73
2018-10-11T01:03:42.327Z,36.23
2018-10-11T01:06:10.765Z,34.40
2018-10-11T01:08:38.921Z,34.63
2018-10-11T01:11:06.930Z,36.07
2018-10-11T01:13:34.943Z,33.77
2018-10-11T01:16:02.941Z,35.63
2018-10-11T01:18:30.989Z,34.17
2018-10-11T01:20:58.991Z,35.47
2018-10-11T01:23:27.024Z,33.33
2018-10-11T01:25:55.425Z,35.03
2018-10-11T01:28:23.705Z,36.00
2018-10-11T01:30:57.306Z,35.00
2018-10-11T01:33:25.286Z,34.13
2018-10-11T01:35:53.363Z,35.13
2018-10-11T01:38:21.332Z,34.70
2018-10-11T01:40:49.302Z,34.80
2018-10-11T01:43:17.257Z,35.77
2018-10-11T01:45:45.235Z,35.30
2018-10-11T01:48:14.319Z,36.83
2018-10-11T01:50:42.292Z,35.20
2018-10-11T01:53:10.684Z,35.37
2018-10-11T01:55:38.828Z,33.90
2018-10-11T01:58:06.827Z,36.23
2018-10-11T02:00:34.869Z,35.83
2018-10-11T02:03:02.939Z,34.70
2018-10-11T02:05:30.912Z,35.60
2018-10-11T02:07:59.484Z,35.70
2018-10-11T02:10:28.392Z,35.30
2018-10-11T02:12:57.160Z,34.83
2018-10-11T02:15:25.767Z,36.53
2018-10-11T02:17:53.955Z,35.23
2018-10-11T02:20:21.924Z,34.70
2018-10-11T02:22:49.943Z,34.80
2018-10-11T02:25:17.910Z,36.30
2018-10-11T02:27:45.866Z,34.63
2018-10-11T02:30:13.880Z,35.33
2018-10-11T02:32:42.484Z,34.27
2018-10-11T02:35:11.129Z,35.13
2018-10-11T02:37:39.197Z,35.57
2018-10-11T02:40:07.165Z,35.90
2018-10-11T02:42:35.124Z,35.83
2018-10-11T02:45:03.072Z,34.43
2018-10-11T02:47:31.083Z,35.97
2018-10-11T02:49:59.044Z,35.27
2018-10-11T02:52:27.132Z,35.30
2018-10-11T02:54:55.131Z,34.67
2018-10-11T02:57:34.637Z,36.40
2018-10-11T03:00:03.562Z,36.20
2018-10-11T03:02:32.025Z,36.00
2018-10-11T03:05:00.292Z,37.00
2018-10-11T03:07:28.921Z,37.93
2018-10-11T03:09:57.872Z,37.13
2018-10-11T03:12:25.873Z,37.00
2018-10-11T03:14:53.852Z,36.80
2018-10-11T03:17:21.832Z,37.80
2018-10-11T03:19:49.913Z,38.97
2018-10-11T03:22:17.929Z,38.20
2018-10-11T03:24:45.975Z,37.90
2018-10-11T03:27:13.953Z,37.53
2018-10-11T03:29:41.927Z,37.70
2018-10-11T03:32:15.001Z,35.97
2018-10-11T03:34:42.967Z,36.33
2018-10-11T03:37:10.973Z,35.30
2018-10-11T03:39:38.965Z,35.80
2018-10-11T03:42:07.441Z,35.90
2018-10-11T03:44:35.405Z,38.20
2018-10-11T03:47:03.369Z,37.67
2018-10-11T03:49:31.632Z,37.47
2018-10-11T03:51:59.612Z,36.30
2018-10-11T03:54:27.589Z,36.47
2018-10-11T03:56:55.916Z,37.83
2018-10-11T03:59:24.491Z,39.37
2018-10-11T04:01:52.557Z,38.43
2018-10-11T04:04:20.639Z,37.40
2018-10-11T04:06:48.640Z,38.60
2018-10-11T04:09:16.606Z,37.07
2018-10-11T04:11:44.601Z,38.97
2018-10-11T04:14:12.557Z,39.20
2018-10-11T04:16:40.573Z,39.07
2018-10-11T04:19:08.741Z,40.17
2018-10-11T04:21:36.734Z,40.90
2018-10-11T04:24:04.732Z,39.10
2018-10-11T04:26:32.693Z,39.47
2018-10-11T04:29:00.669Z,38.67
2018-10-11T04:31:28.944Z,37.90
2018-10-11T04:33:56.941Z,41.50
2018-10-11T04:36:24.918Z,40.47
2018-10-11T04:38:52.892Z,40.47
2018-10-11T04:41:20.881Z,40.83
2018-10-11T04:43:48.892Z,39.77
2018-10-11T04:46:16.894Z,39.90
2018-10-11T04:48:44.857Z,40.00
2018-10-11T04:51:12.849Z,40.20
2018-10-11T04:53:40.856Z,39.30
2018-10-11T04:56:08.933Z,40.00
2018-10-11T04:58:36.937Z,38.93
2018-10-11T05:01:04.917Z,37.77
2018-10-11T05:03:32.890Z,38.27
2018-10-11T05:06:00.869Z,37.63
2018-10-11T05:08:28.863Z,39.67
2018-10-11T05:10:56.887Z,40.50
2018-10-11T05:13:34.517Z,38.47
2018-10-11T05:16:02.495Z,37.73
2018-10-11T05:18:30.467Z,37.90
2018-10-11T05:20:58.425Z,40.10
2018-10-11T05:23:26.480Z,38.00
2018-10-11T05:25:54.498Z,37.67
2018-10-11T05:28:22.433Z,38.27
2018-10-11T05:30:50.459Z,39.23
2018-10-11T05:33:18.535Z,38.60
2018-10-11T05:35:46.497Z,37.97
2018-10-11T05:38:14.553Z,38.30
2018-10-11T05:40:42.581Z,37.10
2018-10-11T05:43:11.459Z,37.97
2018-10-11T05:45:42.361Z,36.67
2018-10-11T05:48:10.355Z,37.20
2018-10-11T05:50:38.647Z,36.30
2018-10-11T05:53:06.689Z,38.50
2018-10-11T05:55:34.662Z,37.97
2018-10-11T05:58:02.648Z,36.70
2018-10-11T06:00:30.637Z,37.47
2018-10-11T06:03:01.131Z,35.93
2018-10-11T06:05:29.904Z,37.27
2018-10-11T06:07:58.694Z,36.33
2018-10-11T06:10:27.522Z,36.27
2018-10-11T06:12:55.578Z,37.10
2018-10-11T06:15:23.632Z,36.87
2018-10-11T06:17:51.623Z,36.37
2018-10-11T06:20:19.590Z,36.17
2018-10-11T06:22:47.614Z,35.87
2018-10-11T06:25:15.615Z,39.37
2018-10-11T06:27:43.680Z,41.00
2018-10-11T06:30:12.716Z,41.50
2018-10-11T06:32:40.975Z,38.00
2018-10-11T06:35:08.958Z,36.57
2018-10-11T06:37:37.332Z,35.83
2018-10-11T06:40:05.305Z,36.13
2018-10-11T06:42:33.579Z,36.10
2018-10-11T06:45:02.192Z,34.23
2018-10-11T06:47:30.777Z,35.93
2018-10-11T06:49:58.832Z,33.80
2018-10-11T06:52:26.777Z,35.70
2018-10-11T06:54:54.765Z,34.13
2018-10-11T06:57:22.740Z,34.13
2018-10-11T06:59:50.844Z,34.60
2018-10-11T07:02:18.833Z,35.23
2018-10-11T07:04:46.834Z,35.10
2018-10-11T07:07:14.797Z,35.13
2018-10-11T07:09:42.922Z,35.03
2018-10-11T07:12:10.922Z,35.97
2018-10-11T07:14:38.925Z,36.23
2018-10-11T07:17:06.905Z,35.63
2018-10-11T07:19:34.951Z,35.83
2018-10-11T07:22:02.918Z,33.50
2018-10-11T07:24:30.945Z,33.43
2018-10-11T07:26:58.949Z,33.27
2018-10-11T07:29:26.941Z,33.20
2018-10-11T07:31:55.043Z,34.30
2018-10-11T07:34:23.067Z,33.83
2018-10-11T07:36:51.056Z,33.33
2018-10-11T07:39:19.015Z,33.70
2018-10-11T07:41:47.129Z,30.63
2018-10-11T07:44:15.093Z,30.23
2018-10-11T07:46:43.112Z,30.90
2018-10-11T07:49:11.113Z,31.13
2018-10-11T07:51:39.108Z,32.10
2018-10-11T07:54:07.078Z,31.03
2018-10-11T07:56:35.093Z,31.30
2018-10-11T07:59:03.152Z,31.40
2018-10-11T08:01:31.542Z,31.80
2018-10-11T08:03:59.914Z,31.27
2018-10-11T08:06:28.161Z,31.50
2018-10-11T08:08:56.181Z,31.27
2018-10-11T08:11:25.248Z,31.87
2018-10-11T08:13:53.121Z,30.27
2018-10-11T08:16:21.160Z,30.43
2018-10-11T08:18:49.222Z,29.97
2018-10-11T08:21:17.057Z,30.30
2018-10-11T08:23:45.033Z,29.90
2018-10-11T08:26:13.529Z,30.60
2018-10-11T08:28:41.464Z,29.80
2018-10-11T08:31:10.406Z,28.50
2018-10-11T08:33:38.359Z,27.90
2018-10-11T08:36:06.654Z,28.70
2018-10-11T08:38:34.711Z,29.50
2018-10-11T08:41:02.697Z,27.43
2018-10-11T08:43:30.720Z,28.23
2018-10-11T08:45:58.823Z,29.50
2018-10-11T08:48:26.804Z,28.17
2018-10-11T08:50:54.907Z,26.97
2018-10-11T08:53:22.829Z,28.13
2018-10-11T08:55:51.073Z,27.77
2018-10-11T08:58:19.067Z,27.77
2018-10-11T09:00:47.059Z,27.80
2018-10-11T09:03:16.198Z,27.43
2018-10-11T09:05:44.649Z,26.73
2018-10-11T09:08:12.618Z,26.57
2018-10-11T09:10:40.611Z,26.33
2018-10-11T09:13:15.480Z,26.87
2018-10-11T09:15:43.427Z,24.70
2018-10-11T09:18:11.494Z,24.03
2018-10-11T09:20:39.452Z,26.27
2018-10-11T09:23:07.480Z,25.70
2018-10-11T09:25:35.456Z,24.97
2018-10-11T09:28:03.456Z,24.77
2018-10-11T09:30:31.614Z,24.50
2018-10-11T09:33:00.085Z,24.70
2018-10-11T09:35:28.047Z,24.47
2018-10-11T09:37:56.005Z,23.83
2018-10-11T09:40:23.982Z,23.80
2018-10-11T09:42:52.078Z,22.73
2018-10-11T09:45:20.113Z,22.07
2018-10-11T09:47:48.144Z,23.60
2018-10-11T09:50:16.125Z,23.20
2018-10-11T09:52:44.149Z,22.23
2018-10-11T09:55:12.125Z,21.70
2018-10-11T09:57:40.322Z,21.43
2018-10-11T10:00:16.395Z,21.07
2018-10-11T10:02:45.212Z,21.70
2018-10-11T10:05:13.194Z,22.20
2018-10-11T10:07:41.257Z,21.73
2018-10-11T10:10:09.305Z,20.70
2018-10-11T10:12:37.292Z,19.73
2018-10-11T10:15:05.602Z,21.00
2018-10-11T10:17:33.760Z,19.27
2018-10-11T10:20:01.725Z,21.80
2018-10-11T10:22:29.719Z,19.53
2018-10-11T10:24:57.931Z,19.50
2018-10-11T10:27:25.926Z,21.23
2018-10-11T10:29:53.942Z,21.33
2018-10-11T10:32:21.950Z,21.60
2018-10-11T10:34:49.950Z,22.90
2018-10-11T10:37:18.008Z,22.40
2018-10-11T10:39:45.987Z,20.87
2018-10-11T10:42:14.037Z,20.43
2018-10-11T10:44:42.088Z,21.10
2018-10-11T10:47:10.095Z,19.50
2018-10-11T10:49:38.086Z,20.27
2018-10-11T10:52:12.833Z,20.30
2018-10-11T10:54:40.857Z,20.37
2018-10-11T10:57:08.852Z,20.90
2018-10-11T10:59:36.828Z,19.80
2018-10-11T11:02:04.838Z,21.80
2018-10-11T11:04:32.929Z,20.43
2018-10-11T11:07:01.006Z,20.37
2018-10-11T11:09:29.003Z,19.60
2018-10-11T11:11:57.010Z,19.00
2018-10-11T11:14:25.004Z,19.53
2018-10-11T11:16:54.015Z,18.33
2018-10-11T11:19:22.036Z,18.43
2018-10-11T11:21:50.017Z,16.60
2018-10-11T11:24:18.041Z,15.50
2018-10-11T11:26:46.178Z,15.47
2018-10-11T11:29:14.207Z,15.17
2018-10-11T11:31:42.203Z,15.37
2018-10-11T11:34:10.299Z,15.50
2018-10-11T11:36:38.787Z,15.63
2018-10-11T11:39:08.209Z,15.00
2018-10-11T11:41:37.036Z,14.87
2018-10-11T11:44:05.071Z,14.47
2018-10-11T11:46:33.060Z,15.10
2018-10-11T11:49:01.115Z,14.40
2018-10-11T11:51:29.146Z,13.33
2018-10-11T11:53:57.144Z,14.80
2018-10-11T11:56:25.174Z,13.83
2018-10-11T11:58:54.073Z,14.23
2018-10-11T12:01:22.887Z,13.33
2018-10-11T12:03:50.959Z,14.37
2018-10-11T12:06:18.959Z,13.63
2018-10-11T12:08:46.965Z,14.03
2018-10-11T12:11:14.961Z,13.73
2018-10-11T12:13:43.015Z,14.63
2018-10-11T12:16:11.055Z,14.23
2018-10-11T12:18:39.021Z,14.20
2018-10-11T12:21:07.006Z,13.93
2018-10-11T12:23:35.086Z,13.73
2018-10-11T12:26:03.101Z,14.10
2018-10-11T12:28:31.196Z,14.43
2018-10-11T12:30:59.193Z,14.00
2018-10-11T12:33:27.240Z,14.83
2018-10-11T12:35:55.217Z,13.50
2018-10-11T12:38:23.197Z,15.10
2018-10-11T12:40:51.289Z,14.00
2018-10-11T12:43:19.378Z,14.70
2018-10-11T12:45:47.376Z,14.13
2018-10-11T12:48:15.377Z,12.67
2018-10-11T12:50:43.374Z,14.57
2018-10-11T12:53:11.421Z,13.53
2018-10-11T12:55:39.409Z,14.90
2018-10-11T12:58:07.462Z,13.67
2018-10-11T13:00:35.514Z,14.53
2018-10-11T13:03:03.680Z,15.33
2018-10-11T13:05:31.523Z,13.90
2018-10-11T13:07:59.519Z,14.07
2018-10-11T13:10:27.588Z,14.33
2018-10-11T13:12:57.420Z,13.37
2018-10-11T13:15:23.729Z,14.50
2018-10-11T13:17:52.316Z,13.60
2018-10-11T13:20:20.317Z,14.53
2018-10-11T13:22:48.466Z,14.07
2018-10-11T13:25:16.447Z,14.10
2018-10-11T13:27:44.453Z,13.33
2018-10-11T13:30:12.564Z,13.50
2018-10-11T13:32:40.544Z,13.33
2018-10-11T13:35:08.623Z,12.60
2018-10-11T13:37:36.602Z,12.20
2018-10-11T13:40:04.969Z,13.03
2018-10-11T13:42:32.972Z,13.70
2018-10-11T13:45:01.003Z,13.40
2018-10-11T13:47:29.148Z,13.37
2018-10-11T13:49:57.065Z,11.70
2018-10-11T13:52:25.128Z,12.70
2018-10-11T13:54:53.173Z,12.93
2018-10-11T13:57:25.942Z,12.83
2018-10-11T13:59:49.137Z,14.33
2018-10-11T14:02:17.245Z,11.90
2018-10-11T14:04:45.716Z,13.10
2018-10-11T14:07:13.833Z,13.70
2018-10-11T14:09:41.913Z,13.13
2018-10-11T14:12:09.961Z,11.73
2018-10-11T14:14:37.937Z,12.70
2018-10-11T14:17:06.151Z,12.20
2018-10-11T14:19:34.120Z,12.77
2018-10-11T14:22:02.175Z,12.50
2018-10-11T14:24:30.249Z,11.77
2018-10-11T14:26:58.294Z,12.30
2018-10-11T14:29:26.365Z,13.27
2018-10-11T14:31:54.413Z,12.53
2018-10-11T14:34:22.407Z,12.87
2018-10-11T14:36:50.609Z,13.13
2018-10-11T14:39:19.266Z,14.10
2018-10-11T14:41:47.249Z,12.60
2018-10-11T14:44:15.220Z,13.70
2018-10-11T14:46:43.273Z,11.77
2018-10-11T14:49:11.378Z,12.70
2018-10-11T14:51:41.895Z,12.97
2018-10-11T14:54:07.341Z,12.90
2018-10-11T14:56:35.337Z,12.43
2018-10-11T14:59:03.317Z,12.87
2018-10-11T15:01:31.414Z,11.83
2018-10-11T15:03:59.463Z,12.97
2018-10-11T15:06:27.443Z,12.90
2018-10-11T15:08:55.521Z,13.80
2018-10-11T15:11:23.660Z,14.03
2018-10-11T15:13:51.582Z,13.47
2018-10-11T15:16:19.654Z,12.90
2018-10-11T15:18:47.645Z,13.50
2018-10-11T15:21:15.710Z,13.40
2018-10-11T15:23:43.819Z,14.40
2018-10-11T15:26:11.855Z,13.40
2018-10-11T15:28:39.733Z,13.63
2018-10-11T15:31:07.731Z,12.77
2018-10-11T15:33:35.735Z,13.50
2018-10-11T15:36:03.727Z,13.90
2018-10-11T15:38:31.724Z,13.40
2018-10-11T15:40:59.696Z,14.27
2018-10-11T15:43:27.809Z,14.93
2018-10-11T15:45:55.948Z,14.83
2018-10-11T15:48:23.905Z,14.87
2018-10-11T15:50:51.894Z,13.60
2018-10-11T15:53:19.881Z,15.00
2018-10-11T15:55:48.030Z,15.10
2018-10-11T15:58:15.913Z,16.73
2018-10-11T16:00:43.893Z,15.77
2018-10-11T16:03:11.892Z,16.10
2018-10-11T16:05:40.233Z,15.17
2018-10-11T16:08:09.279Z,14.00
2018-10-11T16:10:37.276Z,14.40
2018-10-11T16:13:05.246Z,15.00
2018-10-11T16:15:33.661Z,14.77
2018-10-11T16:18:01.673Z,14.30
2018-10-11T16:20:29.653Z,14.77
2018-10-11T16:22:57.751Z,15.40
2018-10-11T16:25:25.747Z,16.17
2018-10-11T16:27:53.749Z,15.40
2018-10-11T16:30:21.746Z,14.50
2018-10-11T16:32:49.729Z,15.67
2018-10-11T16:35:17.730Z,15.90
2018-10-11T16:37:45.769Z,16.13
2018-10-11T16:40:13.752Z,18.93
2018-10-11T16:42:41.862Z,16.80
2018-10-11T16:45:09.838Z,15.97
2018-10-11T16:47:37.829Z,16.00
2018-10-11T16:50:06.115Z,16.00
2018-10-11T16:52:34.067Z,16.03
2018-10-11T16:55:02.067Z,17.00
2018-10-11T16:57:30.106Z,18.60
2018-10-11T16:59:58.115Z,18.20
2018-10-11T17:02:26.280Z,17.73
2018-10-11T17:04:54.341Z,17.90
2018-10-11T17:07:22.349Z,17.10
2018-10-11T17:09:50.427Z,20.30
2018-10-11T17:12:18.434Z,18.17
2018-10-11T17:14:46.448Z,18.03
2018-10-11T17:17:14.431Z,18.40
2018-10-11T17:19:42.419Z,18.83
2018-10-11T17:22:10.446Z,17.23
2018-10-11T17:24:38.396Z,18.50
2018-10-11T17:27:06.465Z,18.33
2018-10-11T17:29:34.546Z,19.20
2018-10-11T17:32:02.921Z,19.50
2018-10-11T17:34:30.967Z,21.60
2018-10-11T17:36:58.929Z,20.27
2018-10-11T17:39:26.925Z,19.50
2018-10-11T17:41:54.978Z,20.50
2018-10-11T17:44:22.973Z,22.10
2018-10-11T17:46:50.969Z,23.10
2018-10-11T17:49:18.970Z,19.73
2018-10-11T17:51:46.929Z,20.17
2018-10-11T17:54:14.961Z,19.30
2018-10-11T17:56:43.043Z,19.57
2018-10-11T17:59:10.925Z,20.53
2018-10-11T18:01:38.888Z,20.30
2018-10-11T18:04:06.932Z,19.37
2018-10-11T18:06:34.934Z,19.80
2018-10-11T18:09:02.931Z,17.17
2018-10-11T18:11:30.881Z,17.93
2018-10-11T18:13:59.075Z,17.27
2018-10-11T18:19:02.030Z,17.13
2018-10-11T18:21:30.348Z,18.10
2018-10-11T18:23:58.353Z,17.70
2018-10-11T18:26:26.418Z,18.20
2018-10-11T18:28:54.404Z,17.97
2018-10-11T18:31:23.332Z,19.00
2018-10-11T18:33:51.301Z,18.47
2018-10-11T18:36:19.309Z,22.77
2018-10-11T18:38:47.465Z,19.30
2018-10-11T18:41:15.482Z,18.30
2018-10-11T18:43:43.459Z,17.53
2018-10-11T18:46:11.496Z,18.87
2018-10-11T18:48:39.461Z,17.57
2018-10-11T18:51:07.437Z,18.57
2018-10-11T18:53:35.450Z,18.20
2018-10-11T18:56:03.564Z,18.10
2018-10-11T18:58:31.541Z,18.23
2018-10-11T19:00:59.517Z,17.90
2018-10-11T19:03:27.485Z,23.20
2018-10-11T19:05:55.461Z,19.03
2018-10-11T19:08:23.511Z,19.77
2018-10-11T19:10:51.590Z,17.97
2018-10-11T19:13:19.557Z,18.93
2018-10-11T19:15:47.541Z,20.13
2018-10-11T19:18:15.554Z,19.70
2018-10-11T19:20:43.671Z,20.07
2018-10-11T19:23:11.610Z,20.17
2018-10-11T19:25:39.590Z,18.90
2018-10-11T19:28:07.576Z,19.07
2018-10-11T19:30:35.647Z,21.73
2018-10-11T19:33:03.624Z,20.50
2018-10-11T19:35:31.781Z,19.17
2018-10-11T19:37:59.759Z,20.50
2018-10-11T19:40:27.749Z,19.80
2018-10-11T19:42:55.711Z,19.30
2018-10-11T19:45:23.717Z,20.20
2018-10-11T19:47:51.713Z,19.43
2018-10-11T19:50:19.710Z,19.73
2018-10-11T19:52:47.681Z,19.93
2018-10-11T19:55:15.673Z,19.90
2018-10-11T19:57:43.625Z,21.47
2018-10-11T20:00:11.593Z,20.50
2018-10-11T20:02:39.558Z,20.10
2018-10-11T20:05:07.529Z,20.17
2018-10-11T20:07:35.520Z,19.70
2018-10-11T20:10:03.524Z,18.23
2018-10-11T20:12:31.531Z,19.00
2018-10-11T20:14:59.600Z,18.10
2018-10-11T20:17:27.574Z,18.80
2018-10-11T20:19:55.553Z,17.70
2018-10-11T20:22:23.530Z,20.00
2018-10-11T20:24:51.524Z,18.93
2018-10-11T20:27:19.483Z,19.77
2018-10-11T20:29:47.462Z,24.97
2018-10-11T20:32:15.753Z,23.63
2018-10-11T20:34:43.761Z,22.07
2018-10-11T20:37:11.812Z,21.03
2018-10-11T20:39:39.805Z,21.70
2018-10-11T20:42:07.834Z,22.00
2018-10-11T20:44:35.939Z,21.47
2018-10-11T20:47:03.949Z,23.03
2018-10-11T20:49:31.915Z,30.40
2018-10-11T20:51:59.893Z,22.83
2018-10-11T20:54:28.865Z,21.93
2018-10-11T20:56:56.872Z,21.17
2018-10-11T20:59:24.838Z,22.40
2018-10-11T21:01:53.036Z,23.60
2018-10-11T21:04:21.188Z,21.40
2018-10-11T21:06:49.281Z,21.63
2018-10-11T21:09:17.258Z,21.57
2018-10-11T21:11:45.637Z,22.17
2018-10-11T21:14:13.601Z,20.13
2018-10-11T21:16:41.629Z,20.27
2018-10-11T21:19:09.593Z,20.20
2018-10-11T21:21:37.609Z,19.70
2018-10-11T21:24:05.631Z,21.80
2018-10-11T21:26:33.629Z,19.60
2018-10-11T21:29:01.597Z,22.13
2018-10-11T21:31:29.663Z,22.80
2018-10-11T21:33:57.731Z,24.13
2018-10-11T21:36:25.713Z,20.93
2018-10-11T21:38:53.726Z,20.87
2018-10-11T21:41:21.699Z,22.80
2018-10-11T21:43:49.657Z,22.43
2018-10-11T21:46:17.674Z,34.57
2018-10-11T21:48:45.669Z,28.27
2018-10-11T21:51:13.686Z,31.47
2018-10-11T21:53:41.729Z,26.57
2018-10-11T21:56:09.741Z,26.20
2018-10-11T21:58:37.721Z,28.93
2018-10-11T22:01:11.271Z,24.37
2018-10-11T22:03:46.119Z,22.10
2018-10-11T22:06:14.148Z,20.90
2018-10-11T22:08:42.213Z,21.37
2018-10-11T22:11:10.585Z,20.60
2018-10-11T22:13:38.698Z,21.03
2018-10-11T22:16:07.301Z,22.53
2018-10-11T22:18:35.297Z,23.20
2018-10-11T22:21:03.383Z,23.40
2018-10-11T22:23:31.397Z,21.93
2018-10-11T22:25:59.386Z,22.20
2018-10-11T22:28:27.369Z,21.93
2018-10-11T22:30:55.356Z,21.70
2018-10-11T22:33:23.938Z,21.63
2018-10-11T22:35:52.040Z,20.30
2018-10-11T22:38:20.010Z,20.17
2018-10-11T22:40:48.032Z,21.13
2018-10-11T22:43:16.003Z,20.10
2018-10-11T22:45:43.974Z,20.07
2018-10-11T22:48:11.966Z,21.00
2018-10-11T22:50:39.964Z,21.13
2018-10-11T22:53:07.957Z,20.23
2018-10-11T22:55:35.970Z,20.00
2018-10-11T22:58:04.051Z,20.17
2018-10-11T23:00:32.031Z,18.83
2018-10-11T23:03:00.024Z,19.30
2018-10-11T23:05:28.014Z,19.00
2018-10-11T23:07:55.998Z,17.77
2018-10-11T23:10:23.993Z,18.20
2018-10-11T23:12:51.983Z,18.20
2018-10-11T23:15:20.549Z,17.27
2018-10-11T23:17:48.717Z,18.83
2018-10-11T23:20:17.607Z,17.00
2018-10-11T23:22:45.649Z,18.50
2018-10-11T23:25:13.651Z,17.60
2018-10-11T23:27:42.025Z,17.17
2018-10-11T23:30:11.220Z,16.50
2018-10-11T23:32:40.345Z,17.00
2018-10-11T23:35:08.999Z,17.37
2018-10-11T23:37:37.057Z,16.33
2018-10-11T23:40:05.159Z,17.10
2018-10-11T23:42:33.108Z,16.67
2018-10-11T23:45:01.065Z,15.67
2018-10-11T23:47:29.245Z,15.97
2018-10-11T23:49:57.233Z,16.20
2018-10-11T23:52:25.404Z,15.87
2018-10-11T23:54:53.409Z,15.87
2018-10-11T23:57:22.165Z,15.23
2018-10-11T23:59:50.133Z,15.00
